Terminal Aerodrome Forecast
Issued by NWS

Home | Current Version | Previous Version | Text Only | Print | Product List | Glossary Off
Versions: 1 2 3 4 5 6 7 8 9 10 11 12 13 14 15 16

000
FTUS43 KBIS 141642 AAD
TAFMOT
TAF AMD
KMOT 141642Z 1417/1512 31022G29KT 4SM -SN BR BKN015 OVC040
      TEMPO 1417/1418 P6SM NSW SCT015 BKN035
     FM141800 31019G26KT P6SM SCT030
     FM150000 32016KT P6SM SKC
     FM150600 32011KT P6SM FEW250=

USA.gov is the U.S. government's official web portal to all federal, state and local government web resources and services.